Time;durP1;ratioP1;P1;durP2;ratioP2;P2;SDS_P1;SDS_P2;PMS_P1;PMS_P2;Temp;Humidity;BMP_temperature;BMP_pressure;BME280_temperature;BME280_humidity;BME280_pressure;Samples;Min_cycle;Max_cycle;Signal;HPM_P1;HPM_P2
2023/01/12 00:02:10;;;;;;;71.88;50.58;;;16.80;77.80;;;;;;4913430;28;97090;-55
2023/01/12 00:04:36;;;;;;;69.93;50.42;;;16.80;77.90;;;;;;4915864;28;100501;-51
2023/01/12 00:07:04;;;;;;;70.20;50.40;;;16.80;78.00;;;;;;4922165;28;96217;-57
2023/01/12 00:09:29;;;;;;;70.10;50.60;;;16.80;78.10;;;;;;4920658;28;101056;-57
2023/01/12 00:11:55;;;;;;;70.82;50.45;;;16.70;77.80;;;;;;4923317;28;96589;-58
2023/01/12 00:14:21;;;;;;;70.57;50.58;;;16.70;77.90;;;;;;4921580;28;96080;-58
2023/01/12 00:16:46;;;;;;;71.53;50.88;;;16.70;77.90;;;;;;4923172;28;95701;-56
2023/01/12 00:19:14;;;;;;;71.65;50.65;;;16.70;78.00;;;;;;4920330;28;95541;-57
2023/01/12 00:24:32;;;;;;;70.88;50.72;;;16.70;78.20;;;;;;4922154;28;96905;-53
2023/01/12 00:27:00;;;;;;;71.80;50.55;;;16.60;78.10;;;;;;4913770;28;99691;-57
2023/01/12 00:29:27;;;;;;;70.82;50.85;;;16.60;78.20;;;;;;4917588;28;98562;-53
2023/01/12 00:31:54;;;;;;;71.70;50.20;;;16.60;78.20;;;;;;4919865;28;97438;-58
2023/01/12 00:34:20;;;;;;;73.85;50.58;;;16.60;78.10;;;;;;4914067;28;96140;-57
2023/01/12 00:36:46;;;;;;;73.20;51.00;;;16.60;78.00;;;;;;4929576;28;95307;-58
2023/01/12 00:39:13;;;;;;;69.78;50.38;;;16.60;78.30;;;;;;4920493;28;95401;-55
2023/01/12 00:47:10;;;;;;;71.95;50.85;;;16.50;78.30;;;;;;4910572;28;95168;-55
2023/01/12 00:49:37;;;;;;;73.97;50.85;;;16.50;78.20;;;;;;4913507;28;99571;-58
2023/01/12 00:52:04;;;;;;;69.70;50.10;;;16.50;78.00;;;;;;4912651;28;97044;-57
2023/01/12 00:54:33;;;;;;;70.75;50.50;;;16.50;78.60;;;;;;4930934;28;97324;-58
2023/01/12 00:57:00;;;;;;;72.53;50.67;;;16.50;78.40;;;;;;4917084;28;95924;-58
2023/01/12 00:59:26;;;;;;;72.30;50.47;;;16.50;78.30;;;;;;4918301;28;95356;-57
2023/01/12 01:01:52;;;;;;;70.68;50.25;;;16.50;78.20;;;;;;4909219;28;96880;-57
2023/01/12 01:04:17;;;;;;;72.32;50.55;;;16.50;78.20;;;;;;4916030;28;96489;-58
2023/01/12 01:06:43;;;;;;;69.88;50.03;;;16.40;78.10;;;;;;4919558;28;95071;-57
2023/01/12 01:09:09;;;;;;;71.22;50.80;;;16.40;78.30;;;;;;4918184;28;95402;-56
2023/01/12 01:11:35;;;;;;;71.18;50.22;;;16.40;78.50;;;;;;4914776;28;95167;-55
2023/01/12 01:14:01;;;;;;;69.78;50.25;;;16.40;78.40;;;;;;4920550;28;95293;-57
2023/01/12 01:16:28;;;;;;;70.72;50.47;;;16.30;78.30;;;;;;4915709;28;97096;-56
2023/01/12 01:18:54;;;;;;;70.40;50.72;;;16.30;78.60;;;;;;4913601;28;95192;-53
2023/01/12 01:21:20;;;;;;;71.65;50.25;;;16.30;78.40;;;;;;4916791;28;95550;-53
2023/01/12 01:23:46;;;;;;;70.30;50.38;;;16.30;78.50;;;;;;4909060;28;95662;-55
2023/01/12 01:26:15;;;;;;;71.53;50.38;;;16.30;78.40;;;;;;4918814;28;95591;-53
2023/01/12 01:28:41;;;;;;;68.90;50.38;;;16.30;78.50;;;;;;4909401;28;97503;-58
2023/01/12 01:31:19;;;;;;;70.38;50.35;;;16.30;78.40;;;;;;4920623;28;95579;-58
2023/01/12 01:33:45;;;;;;;72.57;50.55;;;16.30;78.50;;;;;;4920118;28;97277;-53
2023/01/12 01:36:12;;;;;;;71.47;50.08;;;16.20;79.20;;;;;;4918065;28;95335;-56
2023/01/12 01:38:38;;;;;;;70.50;50.35;;;16.20;78.60;;;;;;4922834;28;95546;-56
2023/01/12 01:41:05;;;;;;;70.18;50.22;;;16.20;78.50;;;;;;4910824;28;97259;-54
2023/01/12 01:43:51;;;;;;;69.32;50.38;;;16.20;78.40;;;;;;4909248;28;97804;-54
2023/01/12 01:46:27;;;;;;;70.13;49.90;;;16.20;78.50;;;;;;4913399;28;100350;-58
2023/01/12 01:48:53;;;;;;;70.50;50.45;;;16.20;78.40;;;;;;4913808;28;96140;-57
2023/01/12 01:51:20;;;;;;;69.45;50.42;;;16.20;78.10;;;;;;4918776;28;96411;-58
2023/01/12 01:53:46;;;;;;;70.88;50.83;;;16.10;78.50;;;;;;4910126;28;96674;-55
2023/01/12 01:56:24;;;;;;;70.13;50.20;;;16.20;78.40;;;;;;4920261;28;98751;-57
2023/01/12 01:58:55;;;;;;;70.15;50.25;;;16.10;78.40;;;;;;4922329;28;95060;-57
2023/01/12 02:01:20;;;;;;;70.53;50.15;;;16.10;78.30;;;;;;4913414;28;95366;-53
2023/01/12 02:03:47;;;;;;;70.47;50.30;;;16.10;78.40;;;;;;4907114;28;95086;-55
2023/01/12 02:06:14;;;;;;;69.18;49.97;;;16.10;78.60;;;;;;4914060;28;99592;-57
2023/01/12 02:08:59;;;;;;;69.15;49.65;;;16.10;78.60;;;;;;4920513;28;95858;-56
2023/01/12 02:17:08;;;;;;;68.43;50.15;;;16.00;78.20;;;;;;4915713;28;96039;-58
2023/01/12 02:19:58;;;;;;;71.03;50.55;;;16.00;78.30;;;;;;4910845;28;101676;-57
2023/01/12 02:22:49;;;;;;;68.85;49.80;;;16.00;78.20;;;;;;4911056;28;96987;-53
2023/01/12 02:25:32;;;;;;;69.28;50.63;;;16.00;78.30;;;;;;4910981;28;95786;-57
2023/01/12 02:28:17;;;;;;;67.82;50.05;;;16.00;78.00;;;;;;4919430;28;98172;-55
2023/01/12 02:30:50;;;;;;;67.75;50.15;;;16.00;78.30;;;;;;4913071;28;96251;-57
2023/01/12 02:33:50;;;;;;;67.47;50.35;;;15.90;78.10;;;;;;4912958;28;97206;-57
2023/01/12 02:36:30;;;;;;;69.78;49.75;;;16.00;77.90;;;;;;4910754;28;97281;-51
2023/01/12 02:39:04;;;;;;;69.18;50.33;;;15.90;78.20;;;;;;4913109;28;98827;-58
2023/01/12 02:44:37;;;;;;;69.85;49.88;;;15.90;78.00;;;;;;4914300;28;97257;-58
2023/01/12 02:47:10;;;;;;;67.13;50.03;;;15.90;77.90;;;;;;4918108;28;98305;-54
2023/01/12 02:49:43;;;;;;;70.93;50.30;;;15.90;77.90;;;;;;4914512;28;95454;-50
2023/01/12 02:52:14;;;;;;;70.05;50.22;;;15.90;78.00;;;;;;4912191;28;95241;-54
2023/01/12 02:54:45;;;;;;;67.75;50.10;;;15.80;77.80;;;;;;4900521;28;95082;-58
2023/01/12 02:57:12;;;;;;;69.30;49.60;;;15.80;77.90;;;;;;4911876;28;95801;-57
2023/01/12 02:59:40;;;;;;;68.15;50.25;;;15.80;77.80;;;;;;4914925;28;98232;-58
2023/01/12 03:02:14;;;;;;;69.85;49.92;;;15.80;77.70;;;;;;4910051;28;96278;-59
2023/01/12 03:04:40;;;;;;;71.18;50.63;;;15.80;77.80;;;;;;4919878;28;97979;-57
2023/01/12 03:07:18;;;;;;;69.40;50.15;;;15.80;77.90;;;;;;4915937;28;95126;-53
2023/01/12 03:10:11;;;;;;;69.10;50.15;;;15.80;77.40;;;;;;4908531;28;95965;-58
2023/01/12 03:12:39;;;;;;;69.60;49.67;;;15.70;77.70;;;;;;4897065;28;96602;-55
2023/01/12 03:15:07;;;;;;;69.72;49.92;;;15.70;77.70;;;;;;4913467;28;94729;-50
2023/01/12 03:18:02;;;;;;;69.68;50.15;;;15.70;77.70;;;;;;4919389;28;94548;-54
2023/01/12 03:20:31;;;;;;;67.75;50.03;;;15.80;77.50;;;;;;4915735;28;101167;-57
2023/01/12 03:23:07;;;;;;;71.35;50.35;;;15.70;77.30;;;;;;4908922;28;96910;-58
2023/01/12 03:25:34;;;;;;;72.10;50.50;;;15.70;77.30;;;;;;4932807;28;101930;-55
2023/01/12 03:28:03;;;;;;;71.10;50.47;;;15.70;77.50;;;;;;4915912;28;95430;-54
2023/01/12 03:30:43;;;;;;;71.03;50.17;;;15.70;77.30;;;;;;4921560;28;98704;-57
2023/01/12 03:33:10;;;;;;;70.88;50.17;;;15.70;77.20;;;;;;4914630;28;96011;-58
2023/01/12 03:35:48;;;;;;;69.63;49.92;;;15.70;77.30;;;;;;4916472;28;96442;-50
2023/01/12 03:38:27;;;;;;;69.80;50.35;;;15.70;77.00;;;;;;4913093;28;96903;-54
2023/01/12 03:41:05;;;;;;;70.85;50.22;;;15.60;77.10;;;;;;4911884;28;97733;-58
2023/01/12 03:43:54;;;;;;;68.60;50.20;;;15.70;77.10;;;;;;4919109;28;96095;-57
2023/01/12 03:46:27;;;;;;;74.20;50.38;;;15.60;76.90;;;;;;4923493;28;95644;-51
2023/01/12 03:49:09;;;;;;;68.88;50.03;;;15.60;77.00;;;;;;4916166;28;96643;-58
2023/01/12 03:51:40;;;;;;;73.20;50.40;;;15.60;76.90;;;;;;4923655;28;98632;-57
2023/01/12 03:54:10;;;;;;;73.10;50.08;;;15.60;77.00;;;;;;4915775;28;100518;-55
2023/01/12 03:56:37;;;;;;;68.47;50.20;;;15.60;77.00;;;;;;4910629;28;99802;-58
2023/01/12 03:59:03;;;;;;;70.85;50.10;;;15.60;76.90;;;;;;4910326;28;95434;-54
2023/01/12 04:01:30;;;;;;;68.75;49.95;;;15.60;76.80;;;;;;4915603;28;96072;-57
2023/01/12 04:03:56;;;;;;;71.95;49.70;;;15.60;76.50;;;;;;4912181;28;96084;-58
2023/01/12 04:06:21;;;;;;;67.57;49.75;;;15.60;76.70;;;;;;4917388;28;103017;-57
2023/01/12 04:08:47;;;;;;;68.60;50.75;;;15.60;77.30;;;;;;4919475;28;95573;-58
2023/01/12 04:13:57;;;;;;;70.18;50.17;;;15.60;76.60;;;;;;4921014;28;97229;-58
2023/01/12 04:16:22;;;;;;;68.15;49.63;;;15.60;76.50;;;;;;4915550;28;99752;-56
2023/01/12 04:18:48;;;;;;;70.65;50.10;;;15.60;76.60;;;;;;4917441;28;96105;-58
2023/01/12 04:23:59;;;;;;;68.30;49.97;;;15.60;76.50;;;;;;4922031;28;99371;-56
2023/01/12 04:26:28;;;;;;;69.10;49.83;;;15.60;76.50;;;;;;4910902;28;96286;-58
2023/01/12 04:28:53;;;;;;;71.75;50.28;;;15.60;76.50;;;;;;4911316;28;94913;-58
2023/01/12 04:31:19;;;;;;;70.65;49.97;;;15.60;76.70;;;;;;4910785;28;96955;-54
2023/01/12 04:33:44;;;;;;;69.95;49.75;;;15.50;76.20;;;;;;4915325;28;96686;-57
2023/01/12 04:36:10;;;;;;;69.20;50.03;;;15.50;76.30;;;;;;4916853;28;96480;-57
2023/01/12 04:38:39;;;;;;;70.80;49.92;;;15.50;76.40;;;;;;4913992;28;95043;-57
2023/01/12 04:41:06;;;;;;;67.35;49.65;;;15.50;76.50;;;;;;4920011;28;98094;-57
2023/01/12 04:43:32;;;;;;;70.30;50.10;;;15.50;76.50;;;;;;4906622;28;95514;-53
2023/01/12 04:46:02;;;;;;;70.18;49.95;;;15.50;76.30;;;;;;4918776;28;95996;-58
2023/01/12 04:48:28;;;;;;;69.72;49.75;;;15.50;76.40;;;;;;4919604;28;96272;-58
2023/01/12 04:50:53;;;;;;;68.50;50.40;;;15.50;76.20;;;;;;4919282;28;98748;-58
2023/01/12 04:53:20;;;;;;;68.95;50.22;;;15.50;76.10;;;;;;4909164;28;95278;-56
2023/01/12 04:55:46;;;;;;;69.63;49.88;;;15.50;76.20;;;;;;4913323;28;97035;-57
2023/01/12 04:58:12;;;;;;;69.70;50.45;;;15.50;76.30;;;;;;4915243;28;96583;-51
2023/01/12 05:00:37;;;;;;;68.53;50.30;;;15.50;76.40;;;;;;4918169;28;97255;-58
2023/01/12 05:03:03;;;;;;;69.25;50.22;;;15.50;76.20;;;;;;4918509;28;95568;-56
2023/01/12 05:05:31;;;;;;;68.80;50.33;;;15.50;76.20;;;;;;4914948;28;96168;-58
2023/01/12 05:10:49;;;;;;;70.63;50.28;;;15.40;76.40;;;;;;4914797;28;95077;-58
2023/01/12 05:13:15;;;;;;;68.55;49.90;;;15.40;76.00;;;;;;4909388;28;98274;-58
2023/01/12 05:15:40;;;;;;;66.75;49.78;;;15.50;76.40;;;;;;4912955;28;97541;-50
2023/01/12 05:18:06;;;;;;;69.35;50.13;;;15.40;76.40;;;;;;4918693;28;95516;-49
2023/01/12 05:20:32;;;;;;;69.32;49.83;;;15.50;76.50;;;;;;4916421;28;96658;-50
2023/01/12 05:22:57;;;;;;;68.78;49.88;;;15.50;76.40;;;;;;4915005;28;94809;-58
2023/01/12 05:25:25;;;;;;;70.00;50.15;;;15.40;76.30;;;;;;4915261;28;98386;-58
2023/01/12 05:27:54;;;;;;;73.28;50.35;;;15.50;76.30;;;;;;4919117;28;96532;-58
2023/01/12 05:30:20;;;;;;;69.32;49.85;;;15.40;76.40;;;;;;4910066;28;96507;-53
2023/01/12 05:32:45;;;;;;;68.38;49.72;;;15.40;76.20;;;;;;4906823;28;96059;-55
2023/01/12 05:35:11;;;;;;;69.20;49.92;;;15.40;76.20;;;;;;4921874;28;95107;-50
2023/01/12 05:37:36;;;;;;;68.78;49.63;;;15.40;77.00;;;;;;4920130;28;96259;-51
2023/01/12 05:40:03;;;;;;;66.78;49.70;;;15.40;76.40;;;;;;4914489;28;97664;-57
2023/01/12 05:45:13;;;;;;;67.32;49.58;;;15.40;76.30;;;;;;4921146;28;96856;-58
2023/01/12 05:47:38;;;;;;;69.72;50.45;;;15.40;76.40;;;;;;4916111;28;95618;-58
2023/01/12 05:50:05;;;;;;;70.82;50.35;;;15.40;76.40;;;;;;4914866;28;95303;-57
2023/01/12 05:52:30;;;;;;;68.03;49.88;;;15.40;76.30;;;;;;4919447;28;95104;-58
2023/01/12 05:54:56;;;;;;;68.43;49.78;;;15.40;76.30;;;;;;4914396;28;95807;-59
2023/01/12 05:57:21;;;;;;;69.35;49.88;;;15.40;76.40;;;;;;4923012;28;101128;-58
2023/01/12 05:59:47;;;;;;;67.80;50.05;;;15.40;76.40;;;;;;4914171;28;96700;-58
2023/01/12 06:02:16;;;;;;;69.03;49.67;;;15.40;76.30;;;;;;4914720;28;96891;-57
2023/01/12 06:04:43;;;;;;;68.38;49.50;;;15.30;76.40;;;;;;4917175;28;98456;-56
2023/01/12 06:07:13;;;;;;;69.22;49.60;;;15.40;76.50;;;;;;4911245;28;97707;-57
2023/01/12 06:09:39;;;;;;;72.07;50.17;;;15.40;76.40;;;;;;4910109;28;99450;-58
2023/01/12 06:14:50;;;;;;;71.13;49.80;;;15.40;76.40;;;;;;4924261;28;95107;-57
2023/01/12 06:17:16;;;;;;;69.47;49.47;;;15.40;76.50;;;;;;4915229;28;97696;-55
2023/01/12 06:19:41;;;;;;;67.80;50.08;;;15.40;76.60;;;;;;4909490;28;96961;-55
2023/01/12 06:22:08;;;;;;;68.43;49.75;;;15.40;76.60;;;;;;4909481;28;97326;-48
2023/01/12 06:24:33;;;;;;;68.97;50.03;;;15.40;76.60;;;;;;4917030;28;97611;-53
2023/01/12 06:26:59;;;;;;;69.03;49.63;;;15.40;76.70;;;;;;4910418;28;98307;-58
2023/01/12 06:29:25;;;;;;;67.95;49.67;;;15.40;76.70;;;;;;4912992;28;97231;-58
2023/01/12 06:31:51;;;;;;;67.82;50.10;;;15.40;76.70;;;;;;4915191;28;95698;-55
2023/01/12 06:34:16;;;;;;;71.55;49.97;;;15.40;76.90;;;;;;4917342;28;95647;-52
2023/01/12 06:36:42;;;;;;;69.57;49.55;;;15.40;77.00;;;;;;4909175;28;96281;-58
2023/01/12 06:39:08;;;;;;;69.22;49.90;;;15.40;77.20;;;;;;4919827;28;98014;-58
2023/01/12 06:44:18;;;;;;;68.28;50.13;;;15.30;77.20;;;;;;4903928;28;98670;-51
2023/01/12 06:46:44;;;;;;;68.28;49.63;;;15.40;77.30;;;;;;4904845;28;97321;-52
2023/01/12 06:49:10;;;;;;;69.28;49.78;;;15.40;77.10;;;;;;4912336;28;96880;-56
2023/01/12 06:51:36;;;;;;;69.53;50.05;;;15.40;77.10;;;;;;4909822;28;98634;-53
2023/01/12 06:54:02;;;;;;;67.50;49.90;;;15.30;77.30;;;;;;4917256;28;95214;-54
2023/01/12 06:56:27;;;;;;;71.40;50.03;;;15.30;77.40;;;;;;4908417;28;95047;-51
2023/01/12 06:58:53;;;;;;;71.30;49.67;;;15.40;77.30;;;;;;4914361;28;94916;-57
2023/01/12 07:01:19;;;;;;;66.10;49.65;;;15.40;77.40;;;;;;4904248;28;94609;-56
2023/01/12 07:03:44;;;;;;;69.47;50.58;;;15.40;77.30;;;;;;4893633;28;97101;-56
2023/01/12 07:06:10;;;;;;;72.35;49.65;;;15.40;77.50;;;;;;4903098;28;96048;-50
2023/01/12 07:08:36;;;;;;;68.85;49.67;;;15.30;77.40;;;;;;4917692;28;97240;-58
2023/01/12 07:11:04;;;;;;;66.95;50.00;;;15.30;77.30;;;;;;4919264;28;95269;-51
2023/01/12 07:13:30;;;;;;;69.13;49.67;;;15.30;77.50;;;;;;4917755;28;98138;-58
2023/01/12 07:16:00;;;;;;;68.53;49.70;;;15.30;77.40;;;;;;4914168;28;97419;-59
2023/01/12 07:18:27;;;;;;;70.68;49.65;;;15.30;77.50;;;;;;4914076;28;100043;-58
2023/01/12 07:20:53;;;;;;;69.45;49.92;;;15.30;77.50;;;;;;4918891;28;98198;-58
2023/01/12 07:23:18;;;;;;;71.43;50.15;;;15.30;77.20;;;;;;4910132;28;97776;-57
2023/01/12 07:25:44;;;;;;;68.47;49.85;;;15.30;77.50;;;;;;4914496;28;94638;-55
2023/01/12 07:28:10;;;;;;;69.35;49.55;;;15.40;77.50;;;;;;4919177;28;95419;-54
2023/01/12 07:30:35;;;;;;;70.68;49.72;;;15.40;77.20;;;;;;4915239;28;95308;-57
2023/01/12 07:33:09;;;;;;;70.00;49.92;;;15.40;77.20;;;;;;4906148;28;97127;-58
2023/01/12 07:35:35;;;;;;;67.93;49.72;;;15.40;77.50;;;;;;4918633;28;95420;-53
2023/01/12 07:38:00;;;;;;;67.50;49.53;;;15.40;77.50;;;;;;4915149;28;95202;-56
2023/01/12 07:40:26;;;;;;;69.75;50.03;;;15.40;77.10;;;;;;4912026;28;95148;-55
2023/01/12 07:42:59;;;;;;;69.18;49.88;;;15.40;77.20;;;;;;4913611;28;103156;-53
2023/01/12 07:45:24;;;;;;;66.35;49.80;;;15.40;77.10;;;;;;4915004;28;100329;-53
2023/01/12 07:47:54;;;;;;;67.25;49.75;;;15.50;77.30;;;;;;4917163;28;94722;-45
2023/01/12 07:50:20;;;;;;;73.97;50.05;;;15.60;78.10;;;;;;4919164;28;95908;-50
2023/01/12 07:52:46;;;;;;;68.82;50.25;;;15.70;78.10;;;;;;4910123;28;97775;-52
2023/01/12 07:55:12;;;;;;;69.80;50.08;;;15.60;77.90;;;;;;4907760;28;95641;-50
2023/01/12 07:57:38;;;;;;;70.60;50.40;;;15.60;77.60;;;;;;4912799;28;96442;-49
2023/01/12 08:00:05;;;;;;;70.45;50.58;;;15.50;77.30;;;;;;4908675;28;98135;-50
2023/01/12 08:02:30;;;;;;;76.13;51.05;;;15.50;77.40;;;;;;4914149;28;101909;-50
2023/01/12 08:04:56;;;;;;;69.47;50.13;;;15.60;77.80;;;;;;4917151;28;95838;-47
2023/01/12 08:07:22;;;;;;;73.32;50.80;;;15.60;77.80;;;;;;4927079;28;95592;-51
2023/01/12 08:09:48;;;;;;;70.45;50.55;;;15.70;77.80;;;;;;4909588;28;96360;-51
2023/01/12 08:12:14;;;;;;;75.35;50.85;;;15.70;77.50;;;;;;4906826;28;95271;-53
2023/01/12 08:14:41;;;;;;;72.40;51.05;;;15.80;77.30;;;;;;4912852;28;95199;-50
2023/01/12 08:17:20;;;;;;;71.68;50.47;;;15.80;77.00;;;;;;4916411;28;95263;-50
2023/01/12 08:20:00;;;;;;;69.97;50.67;;;15.70;76.60;;;;;;4914050;28;102664;-47
2023/01/12 08:22:34;;;;;;;71.53;49.95;;;15.70;76.50;;;;;;4914426;28;96699;-50
2023/01/12 08:25:08;;;;;;;70.47;50.47;;;15.70;76.50;;;;;;4931028;28;97875;-52
2023/01/12 08:27:37;;;;;;;69.95;50.58;;;15.80;76.70;;;;;;4925780;28;96690;-54
2023/01/12 08:30:07;;;;;;;69.88;50.35;;;15.80;76.80;;;;;;4912579;28;96681;-52
2023/01/12 08:32:33;;;;;;;70.18;50.40;;;15.80;76.90;;;;;;4919013;28;95300;-50
2023/01/12 08:35:00;;;;;;;70.20;50.38;;;15.90;76.80;;;;;;4928358;28;95136;-48
2023/01/12 08:37:27;;;;;;;70.85;50.22;;;15.90;76.80;;;;;;4923022;28;99283;-47
2023/01/12 08:39:53;;;;;;;70.95;50.67;;;16.00;76.30;;;;;;4918129;28;95813;-52
2023/01/12 08:42:22;;;;;;;69.82;50.92;;;15.90;76.50;;;;;;4920219;28;95871;-53
2023/01/12 08:44:48;;;;;;;69.63;50.97;;;16.00;76.10;;;;;;4924665;28;96996;-53
2023/01/12 08:47:25;;;;;;;71.20;51.08;;;16.00;75.80;;;;;;4929218;28;96401;-53
2023/01/12 08:49:52;;;;;;;69.53;50.47;;;16.10;76.20;;;;;;4920673;28;94820;-53
2023/01/12 08:52:18;;;;;;;73.53;51.30;;;16.20;76.50;;;;;;4917271;28;96105;-53
2023/01/12 08:54:44;;;;;;;73.35;50.88;;;16.20;75.70;;;;;;4923213;28;96955;-47
2023/01/12 08:57:10;;;;;;;73.85;50.97;;;16.20;75.30;;;;;;4927509;28;95872;-51
2023/01/12 08:59:35;;;;;;;69.55;50.55;;;16.20;75.70;;;;;;4922773;28;94808;-57
2023/01/12 09:02:01;;;;;;;69.97;50.65;;;16.30;75.60;;;;;;4932040;28;95737;-53
2023/01/12 09:04:27;;;;;;;69.07;50.58;;;16.30;75.50;;;;;;4919223;28;96404;-58
2023/01/12 09:06:53;;;;;;;69.38;50.55;;;16.30;75.40;;;;;;4913010;28;96159;-61
2023/01/12 09:09:19;;;;;;;67.32;50.10;;;16.30;75.40;;;;;;4917471;28;98460;-58
2023/01/12 09:11:45;;;;;;;69.45;50.55;;;16.30;75.60;;;;;;4905834;28;96433;-55
2023/01/12 09:14:12;;;;;;;69.50;50.42;;;16.30;75.70;;;;;;4922540;28;95513;-56
2023/01/12 09:16:38;;;;;;;70.88;50.63;;;16.30;75.60;;;;;;4922619;28;97596;-55
2023/01/12 09:19:05;;;;;;;68.80;50.47;;;16.40;75.30;;;;;;4924057;28;95725;-53
2023/01/12 09:21:31;;;;;;;69.25;50.92;;;16.40;75.30;;;;;;4921667;28;95006;-54
2023/01/12 09:23:57;;;;;;;69.65;50.90;;;16.50;75.20;;;;;;4916609;28;100127;-51
2023/01/12 09:26:30;;;;;;;69.55;50.75;;;16.50;75.10;;;;;;4908813;28;100015;-53
2023/01/12 09:28:59;;;;;;;73.30;50.63;;;16.50;75.10;;;;;;4916604;28;96082;-58
2023/01/12 09:31:26;;;;;;;70.28;51.20;;;16.40;75.20;;;;;;4898710;28;98735;-49
2023/01/12 09:33:53;;;;;;;72.80;51.75;;;16.50;74.90;;;;;;4909965;28;98060;-52
2023/01/12 09:36:33;;;;;;;70.32;51.75;;;16.60;74.40;;;;;;4916558;28;97014;-54
2023/01/12 09:39:00;;;;;;;71.03;51.75;;;16.70;74.10;;;;;;4903480;28;101463;-50
2023/01/12 09:47:47;;;;;;;71.03;52.45;;;16.90;73.40;;;;;;4909461;28;96264;-50
2023/01/12 09:50:22;;;;;;;72.43;51.88;;;17.00;73.20;;;;;;4911012;28;95086;-54
2023/01/12 09:52:51;;;;;;;70.60;51.92;;;17.00;72.90;;;;;;4896566;28;95123;-53
2023/01/12 09:55:20;;;;;;;70.22;51.45;;;17.10;73.10;;;;;;4910234;28;94823;-50
2023/01/12 09:58:21;;;;;;;70.05;51.50;;;17.10;73.20;;;;;;4912039;28;101167;-53
2023/01/12 10:00:53;;;;;;;72.77;51.43;;;17.10;73.60;;;;;;4899815;28;100517;-55
2023/01/12 10:03:34;;;;;;;71.10;51.28;;;17.10;73.50;;;;;;4905337;28;97652;-51
2023/01/12 10:06:00;;;;;;;70.85;52.08;;;17.10;73.40;;;;;;4912858;28;97205;-58
2023/01/12 10:08:51;;;;;;;69.38;51.65;;;17.10;73.70;;;;;;4901815;28;101179;-48
2023/01/12 10:11:39;;;;;;;69.75;51.65;;;17.10;73.70;;;;;;4901959;28;95843;-57
2023/01/12 10:14:33;;;;;;;70.55;51.58;;;17.10;73.70;;;;;;4909092;28;102141;-50
2023/01/12 10:17:07;;;;;;;74.32;52.53;;;17.00;73.60;;;;;;4913188;28;95330;-51
2023/01/12 10:20:02;;;;;;;79.03;55.22;;;17.00;74.20;;;;;;4914710;28;95340;-48
2023/01/12 10:22:49;;;;;;;79.30;54.53;;;17.00;74.40;;;;;;4912574;28;95169;-47
2023/01/12 10:25:21;;;;;;;75.15;54.08;;;17.10;73.90;;;;;;4904271;28;98531;-55
2023/01/12 10:27:49;;;;;;;75.57;53.90;;;17.10;73.60;;;;;;4899522;28;96448;-58
2023/01/12 10:30:18;;;;;;;77.13;54.13;;;17.10;73.30;;;;;;4877819;28;98938;-56
2023/01/12 10:32:44;;;;;;;76.88;54.28;;;17.20;73.30;;;;;;4910960;28;95235;-52
2023/01/12 10:35:18;;;;;;;75.75;53.15;;;17.20;73.10;;;;;;4923002;28;96377;-53
2023/01/12 10:37:55;;;;;;;80.20;53.78;;;17.20;72.80;;;;;;4923286;28;95577;-52
2023/01/12 10:40:32;;;;;;;75.30;52.67;;;17.20;73.10;;;;;;4917250;28;95669;-56
2023/01/12 10:43:27;;;;;;;74.20;53.47;;;17.20;73.20;;;;;;4915250;28;95544;-50
2023/01/12 10:46:02;;;;;;;78.38;53.55;;;17.30;73.20;;;;;;4917222;28;95064;-55
2023/01/12 10:48:29;;;;;;;73.60;52.63;;;17.40;72.70;;;;;;4918913;28;96066;-53
2023/01/12 10:51:17;;;;;;;74.80;52.83;;;17.40;73.20;;;;;;4920172;28;95470;-50
2023/01/12 10:53:52;;;;;;;75.30;52.53;;;17.40;72.80;;;;;;4923541;28;95136;-48
2023/01/12 10:56:27;;;;;;;74.35;52.83;;;17.50;72.70;;;;;;4921112;28;99216;-52
2023/01/12 10:58:58;;;;;;;74.57;52.33;;;17.40;72.80;;;;;;4915361;28;96740;-50
2023/01/12 11:01:23;;;;;;;73.38;52.42;;;17.40;72.80;;;;;;4915143;28;104551;-51
2023/01/12 11:03:49;;;;;;;72.63;52.47;;;17.40;72.80;;;;;;4910133;28;98678;-50
2023/01/12 11:06:24;;;;;;;72.03;51.80;;;17.40;72.90;;;;;;4920132;28;96583;-47
2023/01/12 11:08:50;;;;;;;72.15;52.92;;;17.40;74.40;;;;;;4903651;28;96035;-48
2023/01/12 11:11:42;;;;;;;71.93;51.47;;;17.40;75.10;;;;;;4912123;28;95650;-51
2023/01/12 11:14:17;;;;;;;;;;;17.40;74.90;;;;;;4908809;28;95426;-51
2023/01/12 11:16:49;;;;;;;72.40;51.63;;;17.40;75.60;;;;;;4919864;28;95113;-46
2023/01/12 11:19:28;;;;;;;71.03;51.63;;;17.50;74.50;;;;;;4902317;28;100122;-48
2023/01/12 11:22:00;;;;;;;72.20;51.70;;;17.50;74.50;;;;;;4909623;28;96437;-52
2023/01/12 11:24:34;;;;;;;71.30;51.35;;;17.50;74.40;;;;;;4914522;28;97047;-50
2023/01/12 11:27:21;;;;;;;74.43;51.88;;;17.50;74.30;;;;;;4908325;28;98659;-56
2023/01/12 11:30:13;;;;;;;71.25;51.53;;;17.50;74.10;;;;;;4908317;28;98426;-56
2023/01/12 11:32:45;;;;;;;71.00;51.55;;;17.50;74.10;;;;;;4919975;28;97748;-53
2023/01/12 11:35:34;;;;;;;72.88;51.72;;;17.50;74.20;;;;;;4927660;28;96027;-52
2023/01/12 11:38:09;;;;;;;70.90;51.67;;;17.50;74.60;;;;;;4922391;28;99493;-52
2023/01/12 11:40:37;;;;;;;72.32;52.00;;;17.50;74.80;;;;;;4911657;28;94347;-54
2023/01/12 11:46:38;;;;;;;71.88;51.63;;;17.60;74.90;;;;;;4920004;28;98335;-55
2023/01/12 11:49:18;;;;;;;71.83;51.63;;;17.60;75.20;;;;;;4914641;28;100158;-54
2023/01/12 11:51:48;;;;;;;71.03;51.20;;;17.60;74.80;;;;;;4926338;28;96566;-55
2023/01/12 11:54:16;;;;;;;71.13;51.45;;;17.50;75.30;;;;;;4912286;28;95471;-51
2023/01/12 11:57:05;;;;;;;75.38;52.17;;;17.50;75.70;;;;;;4920225;28;100592;-54
2023/01/12 11:59:46;;;;;;;75.10;53.47;;;17.40;75.50;;;;;;4912480;28;98332;-52
2023/01/12 12:02:39;;;;;;;72.50;53.47;;;17.40;75.50;;;;;;4917553;28;96191;-55
2023/01/12 12:05:35;;;;;;;73.68;53.22;;;17.50;75.00;;;;;;4922700;28;100050;-56
2023/01/12 12:08:07;;;;;;;75.45;52.80;;;17.60;74.30;;;;;;4919615;28;94976;-48
2023/01/12 12:10:54;;;;;;;73.72;52.97;;;17.60;73.60;;;;;;4919236;28;95375;-47
2023/01/12 12:13:41;;;;;;;75.28;53.45;;;17.70;73.40;;;;;;4913483;28;97784;-52
2023/01/12 12:16:22;;;;;;;72.03;52.88;;;17.80;73.30;;;;;;4912245;28;97272;-53
2023/01/12 12:19:11;;;;;;;75.20;52.95;;;17.80;73.10;;;;;;4919487;28;95383;-58
2023/01/12 12:21:46;;;;;;;73.47;52.55;;;17.80;73.30;;;;;;4919071;28;95686;-54
2023/01/12 12:24:34;;;;;;;72.60;52.65;;;17.80;73.30;;;;;;4918846;28;99502;-54
2023/01/12 12:27:09;;;;;;;72.00;52.28;;;17.80;73.30;;;;;;4935600;28;95141;-54
2023/01/12 12:29:53;;;;;;;72.05;52.40;;;17.70;73.40;;;;;;4923155;28;95431;-53
2023/01/12 12:32:24;;;;;;;70.85;52.00;;;17.80;73.80;;;;;;4925919;28;94895;-55
2023/01/12 12:35:11;;;;;;;72.55;52.40;;;17.80;73.80;;;;;;4924978;28;95213;-55
2023/01/12 12:38:03;;;;;;;74.55;52.22;;;17.80;73.90;;;;;;4919168;28;96170;-56
2023/01/12 12:46:43;;;;;;;73.32;52.25;;;17.70;74.10;;;;;;4918059;28;98399;-49
2023/01/12 12:49:18;;;;;;;71.68;52.03;;;17.70;74.50;;;;;;4922607;28;98189;-50
2023/01/12 12:51:45;;;;;;;73.82;52.20;;;17.70;74.70;;;;;;4915959;28;98041;-54
2023/01/12 12:54:16;;;;;;;72.07;52.50;;;17.70;74.60;;;;;;4909895;28;95944;-53
2023/01/12 12:56:42;;;;;;;72.40;51.70;;;17.60;74.70;;;;;;4916538;28;94818;-53
2023/01/12 12:59:30;;;;;;;70.93;51.63;;;17.60;74.70;;;;;;4917500;28;96543;-56
2023/01/12 13:01:58;;;;;;;71.28;52.08;;;17.60;75.00;;;;;;4914641;28;99331;-45
2023/01/12 13:04:47;;;;;;;72.68;51.58;;;17.60;75.00;;;;;;4926143;28;99491;-52
2023/01/12 13:07:17;;;;;;;71.57;51.60;;;17.60;75.10;;;;;;4915178;28;96925;-55
2023/01/12 13:09:44;;;;;;;72.35;51.70;;;17.60;74.90;;;;;;4905741;28;97671;-58
2023/01/12 13:12:29;;;;;;;72.65;51.97;;;17.50;74.80;;;;;;4918263;28;95631;-52
2023/01/12 13:15:23;;;;;;;71.53;51.40;;;17.50;75.40;;;;;;4920243;28;95515;-53
2023/01/12 13:17:51;;;;;;;74.70;51.45;;;17.50;75.20;;;;;;4914399;28;95473;-50
2023/01/12 13:20:17;;;;;;;77.25;56.50;;;17.50;74.80;;;;;;4912404;28;96224;-50
2023/01/12 13:22:44;;;;;;;90.10;65.28;;;17.40;74.60;;;;;;4920877;28;96254;-53
2023/01/12 13:25:19;;;;;;;85.90;62.10;;;17.40;74.00;;;;;;4921212;28;95617;-49
2023/01/12 13:28:00;;;;;;;90.03;63.85;;;17.50;73.70;;;;;;4921864;28;99183;-54
2023/01/12 13:30:25;;;;;;;93.13;67.73;;;17.60;73.50;;;;;;4918494;28;95641;-55
2023/01/12 13:33:12;;;;;;;93.30;68.65;;;17.60;73.40;;;;;;4924642;28;96541;-54
2023/01/12 13:35:39;;;;;;;87.72;63.60;;;17.80;73.30;;;;;;4918183;28;96274;-57